Artemus, Kentucky
Current Conditions -  °F | °C
As of 9:35 AM on Thursday 30 Oct 2014 (Local Time) from K1A6 Reporting Station
Moderate Fog Moderate Fog  
Wind Chill: 36°   Ceiling: 100
Heat Index: 36°   Visibility: 0mi
Dew Point: 36°   Wind: 0mph
Humidity: 100%   Direction: NA
Pressure: 30.16"   Gusts: NA
Location:  36.83°N, 83.84°W
Report Text: K1A6 301335Z AUTO 00000KT M1/4SM FG OVC001 02/02 A3016 RMK AO2 T00230023
Loading
Personal Weather Stations






























Interactive Weather Map
Tropical Storm Tracking
New forecast layout! Learn more

10-Day Weather Forecast

Advertisements
Track Severe Weather on mobile